createdAt,value
2023-04-15T00:01:59.396Z,99.24
2023-04-15T00:04:27.166Z,99.16
2023-04-15T00:06:54.738Z,99.34
2023-04-15T00:09:29.740Z,99.35
2023-04-15T00:12:03.725Z,99.22
2023-04-15T00:14:35.929Z,99.00
2023-04-15T00:17:07.142Z,98.84
2023-04-15T00:19:34.932Z,98.78
2023-04-15T00:22:08.030Z,98.69
2023-04-15T00:24:43.066Z,98.62
2023-04-15T00:27:15.595Z,98.69
2023-04-15T00:29:43.860Z,98.81
2023-04-15T00:32:15.691Z,98.82
2023-04-15T00:34:43.240Z,98.94
2023-04-15T00:37:14.413Z,98.82
2023-04-15T00:39:42.775Z,99.04
2023-04-15T00:42:14.145Z,99.02
2023-04-15T00:44:45.704Z,99.04
2023-04-15T01:00:45.751Z,97.84
2023-04-15T01:03:28.540Z,97.19
2023-04-15T01:06:00.919Z,96.84
2023-04-15T01:08:31.311Z,96.30
2023-04-15T01:31:52.459Z,95.57
2023-04-15T01:34:21.123Z,95.61
2023-04-15T01:36:48.064Z,95.53
2023-04-15T01:39:15.453Z,95.57
2023-04-15T01:41:43.580Z,95.75
2023-04-15T01:44:10.495Z,96.02
2023-04-15T01:46:40.211Z,96.28
2023-04-15T01:49:08.073Z,96.35
2023-04-15T01:51:35.037Z,96.18
2023-04-15T01:54:04.758Z,96.12
2023-04-15T01:56:32.888Z,96.28
2023-04-15T01:59:01.623Z,96.45
2023-04-15T02:01:29.283Z,96.26
2023-04-15T02:04:01.433Z,96.05
2023-04-15T02:06:31.180Z,95.99
2023-04-15T02:08:58.765Z,96.05
2023-04-15T02:11:27.177Z,96.18
2023-04-15T02:13:54.233Z,96.36
2023-04-15T02:16:21.382Z,96.63
2023-04-15T02:18:54.316Z,96.99
2023-04-15T02:21:22.132Z,97.13
2023-04-15T02:23:49.156Z,97.30
2023-04-15T02:26:16.438Z,97.46
2023-04-15T02:28:43.590Z,97.35
2023-04-15T02:31:10.421Z,97.43
2023-04-15T02:33:37.734Z,97.21
2023-04-15T02:36:06.374Z,97.42
2023-04-15T02:38:34.106Z,97.49
2023-04-15T02:41:02.237Z,97.42
2023-04-15T02:43:30.047Z,97.82
2023-04-15T02:45:57.908Z,97.75
2023-04-15T02:48:28.123Z,97.65
2023-04-15T02:51:11.196Z,97.26
2023-04-15T02:53:38.186Z,96.89
2023-04-15T02:56:07.910Z,97.03
2023-04-15T02:58:35.906Z,97.03
2023-04-15T03:01:03.029Z,96.97
2023-04-15T03:03:30.997Z,97.16
2023-04-15T03:05:58.295Z,97.08
2023-04-15T03:08:27.081Z,96.85
2023-04-15T03:11:00.445Z,96.44
2023-04-15T03:13:27.531Z,96.34
2023-04-15T03:15:56.576Z,96.38
2023-04-15T03:18:23.613Z,96.11
2023-04-15T03:20:50.591Z,95.88
2023-04-15T03:23:18.006Z,95.95
2023-04-15T03:25:45.456Z,95.65
2023-04-15T03:28:12.375Z,95.84
2023-04-15T03:30:39.951Z,96.01
2023-04-15T03:33:08.061Z,96.31
2023-04-15T03:35:35.716Z,96.16
2023-04-15T03:38:06.665Z,96.00
2023-04-15T03:40:34.142Z,95.79
2023-04-15T03:43:01.442Z,96.02
2023-04-15T03:45:28.400Z,95.75
2023-04-15T03:47:56.547Z,95.78
2023-04-15T03:50:28.569Z,96.20
2023-04-15T03:52:55.908Z,96.27
2023-04-15T03:55:22.690Z,96.33
2023-04-15T03:57:49.585Z,96.47
2023-04-15T04:00:16.847Z,96.30
2023-04-15T04:02:46.413Z,96.10
2023-04-15T04:05:13.610Z,96.21
2023-04-15T04:07:42.091Z,95.91
2023-04-15T04:10:09.507Z,95.97
2023-04-15T04:12:36.407Z,95.90
2023-04-15T04:15:07.510Z,95.62
2023-04-15T04:17:35.337Z,95.48
2023-04-15T04:20:02.227Z,95.75
2023-04-15T04:22:46.116Z,95.74
2023-04-15T04:25:12.953Z,96.23
2023-04-15T04:27:40.296Z,96.16
2023-04-15T04:30:08.531Z,95.94
2023-04-15T04:32:37.724Z,95.39
2023-04-15T04:35:07.896Z,95.73
2023-04-15T04:37:38.589Z,95.84
2023-04-15T04:40:06.228Z,95.81
2023-04-15T04:42:33.503Z,95.74
2023-04-15T04:45:02.566Z,95.63
2023-04-15T04:47:30.265Z,95.81
2023-04-15T04:49:58.100Z,95.83
2023-04-15T04:52:25.703Z,95.78
2023-04-15T04:54:52.893Z,95.80
2023-04-15T04:57:20.277Z,95.96
2023-04-15T04:59:47.190Z,96.22
2023-04-15T05:02:14.100Z,96.34
2023-04-15T05:04:41.425Z,96.42
2023-04-15T05:07:10.963Z,96.67
2023-04-15T05:09:38.257Z,96.42
2023-04-15T05:12:07.787Z,96.38
2023-04-15T05:14:39.364Z,96.33
2023-04-15T05:17:11.045Z,95.41
2023-04-15T05:19:39.286Z,95.20
2023-04-15T05:22:08.560Z,95.37
2023-04-15T05:24:35.566Z,95.42
2023-04-15T05:27:04.703Z,95.33
2023-04-15T05:29:32.194Z,94.80
2023-04-15T05:32:00.042Z,94.96
2023-04-15T05:34:27.162Z,94.56
2023-04-15T05:36:54.153Z,94.56
2023-04-15T05:39:21.547Z,94.70
2023-04-15T05:41:48.457Z,94.30
2023-04-15T05:44:16.985Z,94.51
2023-04-15T05:46:45.266Z,94.67
2023-04-15T05:49:12.649Z,94.57
2023-04-15T05:51:39.564Z,94.90
2023-04-15T05:54:11.232Z,94.46
2023-04-15T05:56:39.937Z,94.72
2023-04-15T05:59:08.190Z,94.81
2023-04-15T06:01:37.005Z,94.85
2023-04-15T06:04:05.318Z,94.69
2023-04-15T06:06:33.085Z,94.63
2023-04-15T06:09:00.468Z,94.75
2023-04-15T06:11:33.373Z,94.86
2023-04-15T06:14:01.494Z,94.48
2023-04-15T06:16:29.016Z,94.09
2023-04-15T06:18:56.084Z,93.48
2023-04-15T06:21:23.125Z,93.07
2023-04-15T06:23:50.496Z,93.06
2023-04-15T06:26:18.659Z,92.77
2023-04-15T06:28:45.884Z,93.17
2023-04-15T06:31:12.930Z,92.93
2023-04-15T06:33:40.527Z,92.62
2023-04-15T06:36:07.882Z,92.70
2023-04-15T06:38:37.809Z,92.47
2023-04-15T06:41:05.887Z,92.60
2023-04-15T06:43:32.801Z,92.66
2023-04-15T06:46:00.024Z,92.59
2023-04-15T06:48:29.245Z,92.75
2023-04-15T06:50:57.705Z,92.72
2023-04-15T06:53:30.461Z,92.71
2023-04-15T06:55:57.561Z,93.03
2023-04-15T06:58:24.863Z,93.27
2023-04-15T07:01:00.280Z,93.25
2023-04-15T07:03:32.614Z,93.31
2023-04-15T07:06:01.276Z,93.19
2023-04-15T07:08:34.028Z,92.76
2023-04-15T07:11:02.198Z,92.61
2023-04-15T07:13:30.930Z,92.49
2023-04-15T07:15:58.350Z,92.20
2023-04-15T07:18:27.190Z,92.16
2023-04-15T07:20:55.660Z,92.30
2023-04-15T07:23:24.797Z,91.40
2023-04-15T07:25:54.350Z,90.95
2023-04-15T07:28:21.450Z,90.47
2023-04-15T07:30:48.879Z,90.07
2023-04-15T07:33:20.160Z,89.40
2023-04-15T07:35:48.834Z,89.01
2023-04-15T07:38:16.266Z,88.88
2023-04-15T07:40:46.409Z,88.51
2023-04-15T07:43:15.262Z,88.02
2023-04-15T07:45:44.486Z,88.12
2023-04-15T07:48:17.821Z,88.28
2023-04-15T07:50:53.458Z,88.53
2023-04-15T07:53:23.607Z,88.38
2023-04-15T07:55:56.051Z,88.18
2023-04-15T07:58:25.150Z,87.70
2023-04-15T08:00:55.092Z,87.66
2023-04-15T08:03:23.332Z,87.24
2023-04-15T08:05:53.063Z,87.10
2023-04-15T08:08:28.272Z,87.41
2023-04-15T08:10:56.168Z,87.84
2023-04-15T08:13:23.635Z,87.64
2023-04-15T08:16:24.952Z,87.25
2023-04-15T08:18:55.296Z,86.49
2023-04-15T08:21:24.536Z,86.23
2023-04-15T08:23:52.631Z,85.90
2023-04-15T08:26:23.448Z,85.17
2023-04-15T08:28:55.060Z,85.42
2023-04-15T08:31:22.142Z,85.26
2023-04-15T08:33:52.883Z,85.05
2023-04-15T08:36:20.602Z,85.01
2023-04-15T08:38:50.636Z,85.41
2023-04-15T08:41:22.893Z,85.87
2023-04-15T08:43:58.925Z,85.86
2023-04-15T08:46:29.025Z,86.03
2023-04-15T08:48:57.662Z,85.58
2023-04-15T08:51:29.510Z,85.41
2023-04-15T08:53:56.892Z,85.08
2023-04-15T08:56:26.239Z,84.98
2023-04-15T08:58:53.027Z,85.56
2023-04-15T09:01:21.169Z,85.95
2023-04-15T09:03:48.813Z,85.92
2023-04-15T09:06:17.980Z,86.04
2023-04-15T09:08:45.200Z,85.94
2023-04-15T09:11:13.611Z,85.67
2023-04-15T09:13:41.535Z,85.63
2023-04-15T09:16:08.880Z,85.78
2023-04-15T09:18:37.808Z,85.72
2023-04-15T09:21:11.582Z,85.74
2023-04-15T09:23:39.931Z,85.44
2023-04-15T09:26:07.233Z,84.87
2023-04-15T09:28:36.750Z,85.04
2023-04-15T09:31:03.718Z,85.19
2023-04-15T09:33:31.111Z,85.33
2023-04-15T09:36:00.394Z,84.95
2023-04-15T09:38:27.709Z,84.77
2023-04-15T09:40:55.478Z,85.01
2023-04-15T09:43:42.241Z,84.58
2023-04-15T09:46:09.249Z,84.41
2023-04-15T09:48:36.990Z,84.74
2023-04-15T09:51:03.881Z,84.79
2023-04-15T09:53:36.231Z,84.11
2023-04-15T09:56:03.684Z,83.88
2023-04-15T09:58:33.002Z,83.79
2023-04-15T10:01:03.145Z,83.76
2023-04-15T10:03:33.738Z,83.77
2023-04-15T10:06:02.062Z,83.84
2023-04-15T10:08:32.466Z,84.30
2023-04-15T10:11:01.357Z,84.42
2023-04-15T10:13:35.915Z,83.91
2023-04-15T10:16:08.836Z,83.92
2023-04-15T10:18:38.618Z,83.91
2023-04-15T10:21:05.583Z,83.65
2023-04-15T10:23:32.466Z,83.84
2023-04-15T10:25:59.412Z,83.85
2023-04-15T10:28:27.164Z,83.96
2023-04-15T10:30:54.461Z,84.16
2023-04-15T10:33:23.076Z,84.20
2023-04-15T10:35:51.412Z,84.32
2023-04-15T10:38:35.475Z,83.97
2023-04-15T10:41:21.636Z,83.56
2023-04-15T10:43:55.812Z,83.53
2023-04-15T10:49:25.761Z,83.16
2023-04-15T10:51:57.137Z,83.53
2023-04-15T10:54:23.968Z,83.67
2023-04-15T10:57:14.416Z,83.52
2023-04-15T11:00:04.256Z,83.43
2023-04-15T11:02:46.966Z,83.67
2023-04-15T11:05:17.411Z,83.51
2023-04-15T11:07:46.291Z,83.96
2023-04-15T11:10:13.323Z,83.46
2023-04-15T11:12:40.655Z,83.29
2023-04-15T11:15:30.549Z,83.20
2023-04-15T11:17:58.087Z,82.96
2023-04-15T11:20:25.849Z,83.41
2023-04-15T11:23:08.323Z,83.62
2023-04-15T11:25:41.202Z,83.41
2023-04-15T11:28:08.244Z,83.46
2023-04-15T11:30:36.941Z,83.73
2023-04-15T11:33:05.565Z,83.18
2023-04-15T11:35:32.930Z,83.06
2023-04-15T11:38:10.098Z,83.31
2023-04-15T11:40:37.843Z,83.15
2023-04-15T11:43:20.322Z,82.98
2023-04-15T11:45:49.209Z,82.47
2023-04-15T11:48:16.550Z,82.67
2023-04-15T11:50:43.532Z,82.52
2023-04-15T11:53:11.634Z,82.06
2023-04-15T11:55:43.674Z,82.16
2023-04-15T11:58:16.636Z,82.22
2023-04-15T12:00:52.518Z,81.95
2023-04-15T12:03:26.156Z,82.17
2023-04-15T12:06:17.420Z,82.26
2023-04-15T12:08:58.672Z,82.83
2023-04-15T12:11:26.608Z,83.10
2023-04-15T12:13:56.446Z,83.03
2023-04-15T12:16:24.214Z,83.40
2023-04-15T12:18:52.239Z,82.99
2023-04-15T12:21:20.515Z,82.97
2023-04-15T12:23:54.682Z,82.56
2023-04-15T12:26:29.156Z,82.68
2023-04-15T12:29:09.627Z,83.01
2023-04-15T12:31:37.314Z,82.71
2023-04-15T12:34:07.488Z,83.12
2023-04-15T12:36:37.574Z,82.68
2023-04-15T12:39:05.010Z,82.31
2023-04-15T12:41:32.664Z,82.20
2023-04-15T12:43:59.853Z,81.82
2023-04-15T12:46:27.931Z,81.84
2023-04-15T12:48:54.957Z,82.06
2023-04-15T12:51:21.989Z,82.01
2023-04-15T12:53:49.215Z,82.09
2023-04-15T12:56:19.621Z,82.16
2023-04-15T12:58:46.942Z,82.57
2023-04-15T13:01:14.137Z,82.97
2023-04-15T13:03:41.459Z,83.10
2023-04-15T13:06:08.946Z,83.25
2023-04-15T13:08:38.565Z,83.46
2023-04-15T13:11:07.521Z,83.24
2023-04-15T13:13:34.350Z,83.01
2023-04-15T13:16:01.927Z,83.01
2023-04-15T13:18:30.881Z,83.36
2023-04-15T13:21:00.001Z,83.60
2023-04-15T13:23:27.273Z,83.85
2023-04-15T13:25:54.236Z,83.82
2023-04-15T13:28:22.699Z,84.08
2023-04-15T13:30:50.001Z,84.18
2023-04-15T13:33:18.133Z,84.32
2023-04-15T13:38:20.208Z,84.47
2023-04-15T13:40:50.498Z,84.41
2023-04-15T13:43:18.399Z,83.90
2023-04-15T13:45:46.156Z,83.58
2023-04-15T13:48:13.525Z,83.48
2023-04-15T13:50:44.716Z,83.50
2023-04-15T13:53:12.584Z,83.03
2023-04-15T13:55:41.290Z,83.14
2023-04-15T13:58:08.886Z,83.04
2023-04-15T14:00:38.026Z,83.25
2023-04-15T14:03:05.275Z,83.48
2023-04-15T14:05:33.673Z,83.58
2023-04-15T14:08:01.102Z,83.56
2023-04-15T14:10:28.113Z,83.38
2023-04-15T14:12:54.994Z,83.50
2023-04-15T14:15:22.046Z,83.74
2023-04-15T14:17:49.075Z,83.97
2023-04-15T14:20:17.158Z,84.09
2023-04-15T14:22:44.454Z,84.16
2023-04-15T14:25:17.301Z,84.21
2023-04-15T14:27:50.504Z,84.18
2023-04-15T14:30:17.488Z,84.43
2023-04-15T14:32:45.360Z,84.43
2023-04-15T14:35:12.315Z,84.22
2023-04-15T14:37:39.749Z,84.07
2023-04-15T14:40:07.551Z,84.36
2023-04-15T14:42:35.650Z,84.26
2023-04-15T14:45:03.127Z,84.27
2023-04-15T14:47:33.372Z,84.31
2023-04-15T14:50:01.798Z,84.51
2023-04-15T14:52:32.552Z,84.56
2023-04-15T14:55:01.291Z,84.39
2023-04-15T14:57:30.587Z,84.61
2023-04-15T14:59:58.672Z,84.72
2023-04-15T15:02:37.288Z,84.98
2023-04-15T15:05:06.473Z,84.80
2023-04-15T15:07:33.741Z,84.59
2023-04-15T15:10:10.249Z,84.64
2023-04-15T15:12:40.313Z,84.49
2023-04-15T15:15:19.576Z,84.55
2023-04-15T15:18:25.612Z,84.42
2023-04-15T15:21:05.070Z,84.61
2023-04-15T15:23:33.335Z,84.69
2023-04-15T15:26:04.988Z,84.72
2023-04-15T15:28:33.999Z,84.90
2023-04-15T15:31:00.979Z,84.74
2023-04-15T15:33:30.139Z,84.89
2023-04-15T15:35:57.750Z,84.90
2023-04-15T15:38:24.903Z,84.92
2023-04-15T15:40:52.929Z,85.05
2023-04-15T15:43:23.009Z,85.15
2023-04-15T15:45:52.506Z,85.45
2023-04-15T15:48:19.918Z,85.66
2023-04-15T15:50:46.858Z,85.95
2023-04-15T15:53:20.169Z,86.27
2023-04-15T15:55:51.945Z,86.37
2023-04-15T15:58:20.859Z,86.49
2023-04-15T16:00:48.203Z,86.64
2023-04-15T16:03:15.423Z,86.72
2023-04-15T16:05:43.413Z,86.87
2023-04-15T16:08:10.560Z,86.91
2023-04-15T16:10:37.784Z,87.13
2023-04-15T16:13:05.337Z,87.20
2023-04-15T16:15:32.721Z,87.41
2023-04-15T16:18:03.809Z,87.49
2023-04-15T16:20:31.456Z,87.65
2023-04-15T16:22:58.405Z,87.76
2023-04-15T16:25:28.070Z,87.60
2023-04-15T16:28:05.509Z,87.44
2023-04-15T16:30:41.008Z,87.15
2023-04-15T16:33:09.429Z,86.98
2023-04-15T16:35:36.442Z,87.13
2023-04-15T16:38:04.014Z,87.28
2023-04-15T16:40:31.078Z,87.26
2023-04-15T16:42:58.228Z,87.37
2023-04-15T16:45:26.469Z,87.30
2023-04-15T16:47:53.869Z,87.34
2023-04-15T16:50:21.380Z,87.43
2023-04-15T16:52:48.525Z,87.39
2023-04-15T16:55:15.635Z,87.49
2023-04-15T16:58:01.595Z,87.56
2023-04-15T17:00:32.337Z,87.85
2023-04-15T17:03:06.377Z,87.99
2023-04-15T17:05:33.865Z,88.25
2023-04-15T17:08:02.545Z,88.60
2023-04-15T17:10:31.188Z,88.80
2023-04-15T17:12:58.814Z,88.73
2023-04-15T17:15:26.020Z,88.66
2023-04-15T17:17:53.228Z,88.70
2023-04-15T17:20:20.300Z,88.66
2023-04-15T17:22:47.920Z,88.61
2023-04-15T17:25:15.750Z,88.47
2023-04-15T17:27:43.251Z,88.32
2023-04-15T17:30:10.396Z,88.24
2023-04-15T17:32:38.967Z,88.25
2023-04-15T17:35:09.778Z,88.37
2023-04-15T17:37:39.391Z,88.37
2023-04-15T17:40:08.610Z,88.40
2023-04-15T17:42:40.845Z,88.52
2023-04-15T17:45:08.735Z,88.14
2023-04-15T17:47:35.886Z,88.00
2023-04-15T17:50:03.089Z,87.81
2023-04-15T17:52:30.377Z,87.48
2023-04-15T17:54:57.551Z,87.43
2023-04-15T17:57:25.146Z,87.52
2023-04-15T17:59:52.282Z,87.62
2023-04-15T18:02:19.468Z,87.48
2023-04-15T18:04:47.121Z,87.45
2023-04-15T18:07:16.207Z,87.49
2023-04-15T18:09:44.996Z,87.41
2023-04-15T18:12:12.254Z,87.22
2023-04-15T18:14:40.507Z,86.95
2023-04-15T18:17:07.658Z,86.57
2023-04-15T18:19:35.366Z,86.48
2023-04-15T18:22:03.759Z,86.49
2023-04-15T18:24:31.470Z,86.68
2023-04-15T18:26:59.132Z,86.91
2023-04-15T18:29:26.526Z,86.90
2023-04-15T18:31:54.162Z,87.10
2023-04-15T18:34:21.960Z,87.19
2023-04-15T18:36:52.820Z,87.35
2023-04-15T18:39:20.374Z,87.11
2023-04-15T18:41:47.557Z,87.19
2023-04-15T18:44:14.549Z,87.23
2023-04-15T18:46:42.196Z,87.25
2023-04-15T18:49:10.934Z,87.46
2023-04-15T18:51:39.407Z,87.51
2023-04-15T18:54:06.675Z,87.59
2023-04-15T18:56:35.868Z,87.94
2023-04-15T18:59:25.415Z,87.97
2023-04-15T19:01:51.128Z,87.94
2023-04-15T19:04:18.110Z,87.94
2023-04-15T19:06:46.760Z,87.92
2023-04-15T19:09:14.583Z,88.20
2023-04-15T19:11:41.517Z,88.37
2023-04-15T19:14:09.536Z,88.48
2023-04-15T19:16:36.726Z,88.78
2023-04-15T19:19:03.698Z,88.91
2023-04-15T19:21:35.478Z,88.98
2023-04-15T19:24:02.365Z,88.90
2023-04-15T19:26:30.973Z,89.03
2023-04-15T19:28:58.431Z,89.00
2023-04-15T19:31:25.962Z,88.89
2023-04-15T19:33:52.959Z,88.54
2023-04-15T19:36:19.735Z,88.44
2023-04-15T19:38:46.637Z,88.61
2023-04-15T19:41:15.088Z,88.67
2023-04-15T19:43:42.143Z,88.80
2023-04-15T19:46:09.514Z,88.75
2023-04-15T19:48:37.442Z,88.84
2023-04-15T19:51:04.640Z,88.96
2023-04-15T19:53:31.954Z,88.94
2023-04-15T19:56:00.481Z,89.02
2023-04-15T19:58:32.014Z,89.14
2023-04-15T20:01:00.763Z,89.05
2023-04-15T20:03:27.662Z,89.08
2023-04-15T20:05:54.792Z,89.33
2023-04-15T20:08:22.978Z,89.34
2023-04-15T20:10:49.853Z,89.43
2023-04-15T20:13:17.598Z,89.52
2023-04-15T20:15:44.594Z,89.65
2023-04-15T20:18:11.553Z,89.93
2023-04-15T20:20:38.845Z,89.91
2023-04-15T20:23:05.904Z,90.03
2023-04-15T20:25:32.897Z,89.99
2023-04-15T20:28:01.093Z,90.13
2023-04-15T20:30:29.377Z,90.32
2023-04-15T20:32:58.062Z,90.31
2023-04-15T20:35:28.754Z,90.60
2023-04-15T20:37:56.437Z,90.57
2023-04-15T20:40:23.410Z,90.71
2023-04-15T20:42:50.510Z,90.64
2023-04-15T20:45:17.416Z,90.62
2023-04-15T20:47:44.266Z,90.61
2023-04-15T20:50:16.461Z,90.42
2023-04-15T20:52:44.112Z,90.42
2023-04-15T20:55:11.449Z,90.47
2023-04-15T20:57:39.860Z,90.56
2023-04-15T21:00:10.299Z,90.57
2023-04-15T21:02:38.032Z,90.64
2023-04-15T21:05:05.446Z,90.56
2023-04-15T21:07:32.414Z,90.42
2023-04-15T21:09:59.415Z,90.36
2023-04-15T21:12:26.305Z,90.18
2023-04-15T21:14:53.208Z,90.18
2023-04-15T21:17:20.133Z,90.18
2023-04-15T21:19:47.135Z,90.33
2023-04-15T21:22:14.911Z,90.44
2023-04-15T21:24:43.396Z,90.40
2023-04-15T21:27:12.887Z,90.13
2023-04-15T21:29:41.540Z,89.73
2023-04-15T21:32:08.417Z,89.73
2023-04-15T21:34:35.720Z,89.71
2023-04-15T21:37:04.060Z,89.41
2023-04-15T21:39:31.062Z,89.47
2023-04-15T21:41:58.900Z,89.51
2023-04-15T21:44:26.335Z,89.70
2023-04-15T21:46:53.416Z,89.86
2023-04-15T21:49:20.248Z,89.99
2023-04-15T21:51:47.986Z,89.84
2023-04-15T21:54:14.997Z,89.83
2023-04-15T21:56:42.595Z,89.85
2023-04-15T21:59:10.083Z,89.92
2023-04-15T22:01:38.083Z,89.88
2023-04-15T22:04:07.021Z,89.90
2023-04-15T22:06:35.008Z,90.12
2023-04-15T22:09:01.854Z,90.23
2023-04-15T22:11:31.771Z,90.42
2023-04-15T22:13:58.790Z,90.13
2023-04-15T22:16:25.997Z,89.91
2023-04-15T22:18:54.454Z,89.76
2023-04-15T22:21:23.000Z,90.01
2023-04-15T22:23:50.518Z,90.12
2023-04-15T22:26:17.397Z,90.18
2023-04-15T22:28:44.760Z,90.01
2023-04-15T22:31:13.139Z,90.30
2023-04-15T22:33:40.147Z,90.37
2023-04-15T22:36:07.347Z,90.19
2023-04-15T22:38:34.308Z,90.32
2023-04-15T22:41:01.306Z,90.38
2023-04-15T22:43:28.347Z,90.44
2023-04-15T22:45:56.022Z,90.53
2023-04-15T22:48:25.750Z,90.68
2023-04-15T22:50:52.822Z,90.54
2023-04-15T22:53:20.033Z,90.81
2023-04-15T22:55:47.416Z,90.59
2023-04-15T22:58:15.301Z,90.44
2023-04-15T23:00:42.194Z,90.39
2023-04-15T23:03:09.498Z,90.46
2023-04-15T23:05:39.449Z,90.52
2023-04-15T23:08:09.574Z,90.71
2023-04-15T23:10:40.351Z,90.64
2023-04-15T23:13:07.408Z,90.75
2023-04-15T23:15:34.479Z,90.95
2023-04-15T23:18:02.206Z,90.90
2023-04-15T23:20:29.316Z,90.98
2023-04-15T23:22:57.128Z,90.87
2023-04-15T23:25:24.058Z,90.88
2023-04-15T23:27:51.019Z,90.95
2023-04-15T23:30:17.862Z,90.75
2023-04-15T23:32:45.074Z,90.48
2023-04-15T23:35:12.641Z,90.35
2023-04-15T23:37:39.464Z,90.47
2023-04-15T23:40:07.099Z,90.47
2023-04-15T23:42:34.121Z,90.41
2023-04-15T23:45:01.061Z,90.31
2023-04-15T23:47:29.802Z,90.12
2023-04-15T23:49:56.749Z,90.25
2023-04-15T23:52:23.828Z,90.20
2023-04-15T23:54:52.070Z,90.48
2023-04-15T23:57:18.993Z,90.72
2023-04-15T23:59:45.882Z,91.14
